Time;durP1;ratioP1;P1;durP2;ratioP2;P2;SDS_P1;SDS_P2;PMS_P1;PMS_P2;Temp;Humidity;BMP_temperature;BMP_pressure;BME280_temperature;BME280_humidity;BME280_pressure;Samples;Min_cycle;Max_cycle;Signal;HPM_P1;HPM_P2
2023/01/07 00:00:11;;;;;;;6.67;4.90;;;8.40;99.90;;;;;;5118287;27;20636;-82
2023/01/07 00:02:38;;;;;;;6.93;4.80;;;8.40;99.90;;;;;;5106788;27;20226;-82
2023/01/07 00:05:05;;;;;;;4.60;3.70;;;8.50;99.90;;;;;;5109822;27;20201;-82
2023/01/07 00:07:32;;;;;;;5.17;3.83;;;8.90;99.90;;;;;;5116739;27;20293;-82
2023/01/07 00:10:00;;;;;;;5.67;3.70;;;9.00;99.90;;;;;;5118173;28;20209;-82
2023/01/07 00:12:27;;;;;;;5.00;3.40;;;9.20;99.90;;;;;;5114197;27;20293;-82
2023/01/07 00:14:53;;;;;;;5.40;3.13;;;9.40;99.90;;;;;;5116318;27;21069;-82
2023/01/07 00:17:20;;;;;;;3.90;3.10;;;9.20;99.90;;;;;;5109800;28;20193;-82
2023/01/07 00:19:47;;;;;;;5.80;3.00;;;9.30;99.90;;;;;;5118629;27;20224;-82
2023/01/07 00:22:14;;;;;;;4.63;3.07;;;9.30;99.90;;;;;;5117443;28;20228;-82
2023/01/07 00:24:40;;;;;;;7.00;2.80;;;9.20;99.90;;;;;;5126789;27;20404;-83
2023/01/07 00:27:08;;;;;;;5.00;2.60;;;9.20;99.90;;;;;;5117140;28;20211;-82
2023/01/07 00:29:35;;;;;;;3.93;2.93;;;9.30;99.90;;;;;;5117671;28;20604;-83
2023/01/07 00:32:02;;;;;;;2.80;2.60;;;9.30;99.90;;;;;;5111569;28;20229;-82
2023/01/07 00:34:29;;;;;;;3.80;2.60;;;9.20;99.90;;;;;;5117109;27;20208;-82
2023/01/07 00:37:48;;;;;;;3.43;2.30;;;9.20;99.90;;;;;;5115552;28;20566;-82
2023/01/07 00:39:43;;;;;;;3.17;2.40;;;9.20;99.90;;;;;;5116853;28;20229;-82
2023/01/07 00:44:55;;;;;;;4.30;2.30;;;9.30;99.90;;;;;;5117995;28;20250;-82
2023/01/07 00:47:22;;;;;;;2.50;2.30;;;9.20;99.90;;;;;;5116661;28;20205;-82
2023/01/07 00:49:49;;;;;;;4.03;2.47;;;9.20;99.90;;;;;;5117469;28;20724;-82
2023/01/07 00:52:15;;;;;;;2.27;2.07;;;9.20;99.90;;;;;;5118033;28;20221;-82
2023/01/07 00:54:42;;;;;;;2.87;2.07;;;9.30;99.90;;;;;;5116728;28;20224;-82
2023/01/07 00:57:12;;;;;;;2.20;2.00;;;9.50;99.90;;;;;;5117414;28;20653;-82
2023/01/07 00:59:39;;;;;;;2.00;1.80;;;9.40;99.90;;;;;;5115955;28;20221;-82
2023/01/07 01:02:06;;;;;;;1.73;1.63;;;9.40;99.90;;;;;;5117129;28;20604;-83
2023/01/07 01:04:33;;;;;;;1.80;1.70;;;9.50;99.90;;;;;;5115775;28;20671;-82
2023/01/07 01:06:59;;;;;;;1.80;1.70;;;9.50;99.90;;;;;;5110126;28;20732;-82
2023/01/07 01:09:26;;;;;;;1.70;1.60;;;9.50;99.90;;;;;;5116136;28;20209;-82
2023/01/07 01:11:53;;;;;;;4.20;1.60;;;9.50;99.90;;;;;;5117246;27;20209;-82
2023/01/07 01:14:21;;;;;;;1.50;1.40;;;9.40;99.90;;;;;;5118182;27;20197;-82
2023/01/07 01:16:48;;;;;;;1.70;1.60;;;9.40;99.90;;;;;;5109142;28;20208;-82
2023/01/07 01:19:15;;;;;;;1.67;1.57;;;9.40;99.90;;;;;;5115956;28;20312;-82
2023/01/07 01:21:42;;;;;;;1.83;1.70;;;9.30;99.90;;;;;;5116548;28;20279;-82
2023/01/07 01:24:09;;;;;;;2.10;1.80;;;9.30;99.90;;;;;;5117443;28;20209;-82
2023/01/07 01:26:35;;;;;;;3.47;1.70;;;9.30;99.90;;;;;;5116532;27;20649;-82
2023/01/07 01:29:02;;;;;;;1.70;1.60;;;9.30;99.90;;;;;;5117389;28;20197;-82
2023/01/07 01:31:31;;;;;;;3.00;1.43;;;9.30;99.90;;;;;;5116643;28;20279;-83
2023/01/07 01:33:59;;;;;;;1.40;1.30;;;9.30;99.90;;;;;;5116676;28;20312;-82
2023/01/07 01:36:26;;;;;;;1.90;1.80;;;9.30;99.90;;;;;;5124434;27;20201;-82
2023/01/07 01:38:52;;;;;;;2.57;1.90;;;9.10;99.90;;;;;;5116231;28;20217;-83
2023/01/07 01:41:19;;;;;;;1.80;1.70;;;9.00;99.90;;;;;;5116395;28;20209;-82
2023/01/07 01:43:46;;;;;;;1.70;1.60;;;9.10;99.90;;;;;;5115575;28;20221;-82
2023/01/07 01:46:16;;;;;;;2.13;1.63;;;9.10;99.90;;;;;;5116707;27;20581;-82
2023/01/07 01:48:49;;;;;;;1.93;1.50;;;8.80;99.90;;;;;;5116855;28;20196;-82
2023/01/07 01:51:19;;;;;;;1.50;1.40;;;8.90;99.90;;;;;;5116855;28;20211;-82
2023/01/07 01:53:46;;;;;;;2.20;2.00;;;9.00;99.90;;;;;;5115537;28;20221;-83
2023/01/07 01:56:17;;;;;;;2.77;1.57;;;8.90;99.90;;;;;;5116732;27;20224;-83
2023/01/07 01:58:49;;;;;;;1.60;1.50;;;8.90;99.90;;;;;;5114603;27;20210;-82
2023/01/07 02:01:16;;;;;;;2.00;1.60;;;9.00;99.90;;;;;;5111799;28;20223;-82
2023/01/07 02:03:43;;;;;;;1.87;1.73;;;8.90;99.90;;;;;;5116603;27;20231;-82
2023/01/07 02:06:18;;;;;;;1.60;1.50;;;8.80;99.90;;;;;;5116075;28;20196;-82
2023/01/07 02:08:45;;;;;;;1.57;1.47;;;8.90;99.90;;;;;;5106292;28;20292;-82
2023/01/07 02:11:26;;;;;;;2.80;1.80;;;8.90;99.90;;;;;;5095938;28;20540;-82
2023/01/07 02:14:09;;;;;;;1.90;1.80;;;8.80;99.90;;;;;;5112534;27;20228;-82
2023/01/07 02:16:42;;;;;;;2.37;1.90;;;8.70;99.90;;;;;;5114826;28;20234;-82
2023/01/07 02:19:29;;;;;;;2.60;2.17;;;8.70;99.90;;;;;;5114611;28;20307;-82
2023/01/07 02:22:07;;;;;;;3.00;2.17;;;8.80;99.90;;;;;;5100137;28;20216;-83
2023/01/07 02:24:54;;;;;;;1.80;1.70;;;8.70;99.90;;;;;;5115602;28;20287;-82
2023/01/07 02:27:46;;;;;;;2.17;1.97;;;8.80;99.90;;;;;;5115212;27;20211;-82
2023/01/07 02:30:36;;;;;;;2.00;1.80;;;8.80;99.90;;;;;;5109268;28;20630;-82
2023/01/07 02:33:18;;;;;;;2.23;1.97;;;8.80;99.90;;;;;;5096220;28;20542;-83
2023/01/07 02:36:18;;;;;;;1.80;1.70;;;8.80;99.90;;;;;;5116009;28;20835;-82
2023/01/07 02:38:56;;;;;;;1.70;1.60;;;8.80;99.90;;;;;;5114422;28;20201;-82
2023/01/07 02:41:33;;;;;;;2.67;2.00;;;8.90;99.90;;;;;;5113210;28;20569;-82
2023/01/07 02:44:04;;;;;;;2.10;1.57;;;8.90;99.90;;;;;;5114535;28;20224;-83
2023/01/07 02:46:36;;;;;;;1.63;1.53;;;9.00;99.90;;;;;;5114264;27;20213;-82
2023/01/07 02:49:09;;;;;;;3.43;1.80;;;9.20;99.90;;;;;;5115507;28;20267;-83
2023/01/07 02:51:38;;;;;;;2.00;1.80;;;9.10;99.90;;;;;;5121713;27;20202;-82
2023/01/07 02:54:08;;;;;;;3.33;1.70;;;9.20;99.90;;;;;;5113236;27;20208;-82
2023/01/07 02:56:52;;;;;;;1.73;1.63;;;9.20;99.90;;;;;;5122914;27;20199;-82
2023/01/07 02:59:40;;;;;;;2.10;1.90;;;9.20;99.90;;;;;;5113366;28;20801;-82
2023/01/07 03:02:26;;;;;;;2.00;1.90;;;9.30;99.90;;;;;;5110571;28;20225;-82
2023/01/07 03:05:21;;;;;;;1.97;1.87;;;9.30;99.90;;;;;;5126353;27;20220;-82
2023/01/07 03:07:57;;;;;;;2.20;2.00;;;9.30;99.90;;;;;;5113204;28;20187;-82
2023/01/07 03:10:30;;;;;;;1.93;1.83;;;9.20;99.90;;;;;;5112670;28;20193;-81
2023/01/07 03:13:03;;;;;;;2.00;1.90;;;9.30;99.90;;;;;;5114887;28;20300;-82
2023/01/07 03:15:36;;;;;;;4.37;2.00;;;9.20;99.90;;;;;;5113649;27;20484;-81
2023/01/07 03:18:07;;;;;;;2.13;1.67;;;9.20;99.90;;;;;;5111599;28;20243;-81
2023/01/07 03:20:38;;;;;;;1.60;1.50;;;9.10;99.90;;;;;;5114724;28;20581;-82
2023/01/07 03:23:09;;;;;;;1.93;1.83;;;9.00;99.90;;;;;;5113777;28;20227;-81
2023/01/07 03:25:40;;;;;;;1.63;1.53;;;9.10;99.90;;;;;;5115090;28;20189;-81
2023/01/07 03:28:09;;;;;;;2.33;1.87;;;9.00;99.90;;;;;;5114575;28;20201;-81
2023/01/07 03:30:37;;;;;;;1.90;1.80;;;8.90;99.90;;;;;;5112738;28;20193;-82
2023/01/07 03:33:10;;;;;;;1.80;1.70;;;8.90;99.90;;;;;;5114102;28;20704;-81
2023/01/07 03:35:41;;;;;;;2.03;1.67;;;8.80;99.90;;;;;;5113786;28;20205;-81
2023/01/07 03:38:09;;;;;;;1.53;1.43;;;8.70;99.90;;;;;;5117376;28;20203;-81
2023/01/07 03:40:37;;;;;;;1.53;1.43;;;8.80;99.90;;;;;;5115333;27;20213;-81
2023/01/07 03:43:03;;;;;;;1.90;1.70;;;8.70;99.90;;;;;;5107604;28;20221;-81
2023/01/07 03:45:30;;;;;;;2.00;1.80;;;8.80;99.90;;;;;;5107519;28;20658;-81
2023/01/07 03:47:57;;;;;;;1.77;1.67;;;9.10;99.90;;;;;;5120636;28;20204;-81
2023/01/07 03:50:24;;;;;;;1.73;1.63;;;9.00;99.90;;;;;;5113926;27;20534;-80
2023/01/07 03:52:52;;;;;;;1.67;1.57;;;9.20;99.90;;;;;;5107771;28;20218;-81
2023/01/07 03:55:19;;;;;;;1.93;1.60;;;9.20;99.90;;;;;;5115478;28;20566;-81
2023/01/07 03:57:46;;;;;;;2.90;1.77;;;9.30;99.90;;;;;;5112704;27;20208;-81
2023/01/07 04:00:15;;;;;;;2.30;1.57;;;9.40;99.90;;;;;;5114366;28;20223;-81
2023/01/07 04:02:41;;;;;;;1.57;1.47;;;9.50;99.90;;;;;;5113709;28;20227;-81
2023/01/07 04:05:09;;;;;;;1.77;1.27;;;9.60;99.90;;;;;;5120134;28;20205;-81
2023/01/07 04:07:36;;;;;;;2.53;1.33;;;9.60;99.90;;;;;;5114537;27;20258;-82
2023/01/07 04:10:05;;;;;;;1.93;1.53;;;9.50;99.90;;;;;;5114590;28;20217;-81
2023/01/07 04:12:32;;;;;;;2.57;1.40;;;9.50;99.90;;;;;;5113564;28;20243;-81
2023/01/07 04:14:58;;;;;;;1.53;1.40;;;9.60;99.90;;;;;;5130931;27;20223;-82
2023/01/07 04:17:25;;;;;;;2.20;1.23;;;9.50;99.90;;;;;;5123146;28;20205;-81
2023/01/07 04:19:52;;;;;;;2.37;1.47;;;9.50;99.90;;;;;;5114646;28;20213;-82
2023/01/07 04:22:19;;;;;;;1.50;1.40;;;9.40;99.90;;;;;;5119562;27;20221;-81
2023/01/07 04:24:46;;;;;;;1.50;1.40;;;9.40;99.90;;;;;;5116208;28;20226;-81
2023/01/07 04:27:14;;;;;;;1.60;1.50;;;9.40;99.90;;;;;;5117183;28;20197;-82
2023/01/07 04:29:41;;;;;;;1.47;1.37;;;9.40;99.90;;;;;;5117305;27;20211;-82
2023/01/07 04:32:07;;;;;;;1.40;1.30;;;9.20;99.90;;;;;;5115313;28;20231;-81
2023/01/07 04:34:34;;;;;;;1.57;1.37;;;9.20;99.90;;;;;;5117287;28;20205;-81
2023/01/07 04:37:01;;;;;;;1.60;1.50;;;9.20;99.90;;;;;;5117128;28;20205;-81
2023/01/07 04:39:28;;;;;;;1.40;1.30;;;9.30;99.90;;;;;;5115627;28;20311;-81
2023/01/07 04:41:54;;;;;;;1.37;1.27;;;9.30;99.90;;;;;;5112811;27;20671;-81
2023/01/07 04:44:22;;;;;;;1.67;1.57;;;9.20;99.90;;;;;;5111980;28;20209;-81
2023/01/07 04:46:49;;;;;;;1.80;1.20;;;9.20;99.90;;;;;;5102639;28;20197;-82
2023/01/07 04:49:16;;;;;;;1.70;1.50;;;9.00;99.90;;;;;;5117819;28;20204;-81
2023/01/07 04:51:43;;;;;;;1.87;1.07;;;9.00;99.90;;;;;;5117331;28;20201;-81
2023/01/07 04:54:10;;;;;;;1.43;1.33;;;8.90;99.90;;;;;;5115288;28;20209;-81
2023/01/07 04:56:37;;;;;;;2.00;1.20;;;8.80;99.90;;;;;;5115097;28;20204;-81
2023/01/07 04:59:03;;;;;;;0.97;0.97;;;8.60;99.90;;;;;;5117665;27;20215;-81
2023/01/07 05:01:32;;;;;;;1.10;1.10;;;8.60;99.90;;;;;;5120265;27;20208;-82
2023/01/07 05:03:59;;;;;;;1.37;1.10;;;8.60;99.90;;;;;;5137033;27;20220;-82
2023/01/07 05:06:26;;;;;;;1.10;1.00;;;8.60;99.90;;;;;;5119157;27;20203;-82
2023/01/07 05:08:53;;;;;;;1.20;1.10;;;8.60;99.90;;;;;;5114819;28;20211;-82
2023/01/07 05:11:20;;;;;;;0.80;0.80;;;8.60;99.90;;;;;;5117163;28;20214;-81
2023/01/07 05:13:48;;;;;;;0.90;0.90;;;8.50;99.90;;;;;;5108185;28;20213;-81
2023/01/07 05:16:15;;;;;;;0.83;0.83;;;8.40;99.90;;;;;;5116439;28;20239;-82
2023/01/07 05:18:43;;;;;;;1.57;1.00;;;8.50;99.90;;;;;;5115073;28;20425;-82
2023/01/07 05:21:11;;;;;;;1.60;1.37;;;8.60;99.90;;;;;;5116034;28;20744;-81
2023/01/07 05:23:38;;;;;;;1.23;1.13;;;8.60;99.90;;;;;;5116048;28;20213;-81
2023/01/07 05:26:05;;;;;;;1.40;1.30;;;8.80;99.90;;;;;;5116926;28;20288;-82
2023/01/07 05:28:31;;;;;;;1.23;1.17;;;8.80;99.90;;;;;;5116907;28;20623;-81
2023/01/07 05:31:00;;;;;;;1.20;1.10;;;8.80;99.90;;;;;;5116977;28;20223;-82
2023/01/07 05:33:27;;;;;;;1.40;1.30;;;8.60;99.90;;;;;;5116883;28;20557;-82
2023/01/07 05:35:55;;;;;;;1.47;1.37;;;8.70;99.90;;;;;;5116654;28;20201;-81
2023/01/07 05:38:22;;;;;;;1.00;1.00;;;8.70;99.90;;;;;;5116419;28;20313;-81
2023/01/07 05:40:49;;;;;;;1.00;1.00;;;8.60;99.90;;;;;;5114836;28;20748;-81
2023/01/07 05:43:16;;;;;;;1.40;1.30;;;8.50;99.90;;;;;;5115571;27;20605;-81
2023/01/07 05:45:44;;;;;;;1.50;1.37;;;8.70;99.90;;;;;;5116531;28;20201;-81
2023/01/07 05:48:11;;;;;;;1.80;1.40;;;8.40;99.90;;;;;;5115791;28;20193;-81
2023/01/07 05:50:38;;;;;;;1.40;1.30;;;8.30;99.90;;;;;;5113163;28;20195;-81
2023/01/07 05:53:07;;;;;;;1.50;1.40;;;8.30;99.90;;;;;;5109844;28;20220;-82
2023/01/07 05:55:35;;;;;;;1.43;1.30;;;8.30;99.90;;;;;;5115560;27;20280;-81
2023/01/07 05:58:02;;;;;;;8.20;2.80;;;8.20;99.90;;;;;;5115463;28;20197;-81
2023/01/07 06:00:29;;;;;;;1.17;1.17;;;8.20;99.90;;;;;;5115503;28;20580;-81
2023/01/07 06:02:56;;;;;;;1.40;1.30;;;8.20;99.90;;;;;;5116273;28;20308;-82
2023/01/07 06:05:22;;;;;;;1.50;1.40;;;8.20;99.90;;;;;;5116560;28;20196;-81
2023/01/07 06:07:49;;;;;;;1.30;1.10;;;8.30;99.90;;;;;;5115377;28;20207;-81
2023/01/07 06:10:17;;;;;;;1.53;1.43;;;8.20;99.90;;;;;;5116034;28;20197;-82
2023/01/07 06:12:44;;;;;;;1.83;1.73;;;8.20;99.90;;;;;;5115490;28;20227;-82
2023/01/07 06:15:12;;;;;;;1.70;1.60;;;8.30;99.90;;;;;;5116433;28;20212;-82
2023/01/07 06:17:39;;;;;;;1.80;1.70;;;8.40;99.90;;;;;;5115068;28;20211;-81
2023/01/07 06:20:08;;;;;;;1.70;1.60;;;8.50;99.90;;;;;;5115492;28;20216;-81
2023/01/07 06:22:34;;;;;;;3.00;2.40;;;8.60;99.90;;;;;;5107557;28;20225;-81
2023/01/07 06:25:01;;;;;;;1.87;1.70;;;8.80;99.90;;;;;;5114342;27;20209;-81
2023/01/07 06:27:29;;;;;;;1.93;1.77;;;8.50;99.90;;;;;;5116059;28;20561;-81
2023/01/07 06:29:56;;;;;;;2.43;2.10;;;8.60;99.90;;;;;;5116634;28;20740;-81
2023/01/07 06:32:23;;;;;;;1.90;1.80;;;8.60;99.90;;;;;;5113572;28;20283;-81
2023/01/07 06:34:50;;;;;;;1.77;1.60;;;8.50;99.90;;;;;;5115644;28;20205;-81
2023/01/07 06:37:17;;;;;;;2.70;1.53;;;8.40;99.90;;;;;;5115733;28;20201;-81
2023/01/07 06:39:45;;;;;;;2.57;1.90;;;8.40;99.90;;;;;;5115487;28;20258;-82
2023/01/07 06:42:11;;;;;;;2.37;2.17;;;8.40;99.90;;;;;;5113577;28;20216;-82
2023/01/07 06:44:40;;;;;;;1.97;1.73;;;8.20;99.90;;;;;;5115481;28;20674;-82
2023/01/07 06:47:06;;;;;;;2.20;2.00;;;8.00;99.90;;;;;;5115325;28;20201;-81
2023/01/07 06:49:33;;;;;;;2.53;2.30;;;7.90;99.90;;;;;;5116003;28;20201;-81
2023/01/07 06:52:00;;;;;;;2.30;2.10;;;7.90;99.90;;;;;;5115629;28;20221;-81
2023/01/07 06:54:26;;;;;;;2.27;1.87;;;8.10;99.90;;;;;;5115351;28;20205;-81
2023/01/07 06:56:53;;;;;;;2.27;2.07;;;8.00;99.90;;;;;;5115561;28;20204;-81
2023/01/07 06:59:20;;;;;;;1.47;1.37;;;7.90;99.90;;;;;;5114907;28;20197;-81
2023/01/07 07:01:48;;;;;;;2.07;1.87;;;7.60;99.90;;;;;;5115378;28;20229;-81
2023/01/07 07:04:15;;;;;;;1.67;1.57;;;7.70;99.90;;;;;;5115351;28;20540;-81
2023/01/07 07:06:42;;;;;;;2.63;1.87;;;7.80;99.90;;;;;;5115339;28;20331;-81
2023/01/07 07:09:08;;;;;;;2.40;2.20;;;7.70;99.90;;;;;;5115649;28;20200;-81
2023/01/07 07:11:35;;;;;;;2.63;2.40;;;7.90;99.90;;;;;;5115613;28;20751;-82
2023/01/07 07:14:03;;;;;;;2.70;2.50;;;8.00;99.90;;;;;;5115294;28;20207;-81
2023/01/07 07:16:29;;;;;;;3.93;2.97;;;8.00;99.90;;;;;;5115053;28;20250;-81
2023/01/07 07:18:57;;;;;;;3.27;2.90;;;7.80;99.90;;;;;;5115545;28;20356;-82
2023/01/07 07:21:24;;;;;;;4.30;2.53;;;7.70;99.90;;;;;;5115279;28;20217;-81
2023/01/07 07:23:51;;;;;;;3.90;2.27;;;7.90;99.90;;;;;;5114487;28;20220;-81
2023/01/07 07:26:18;;;;;;;3.33;2.60;;;7.90;99.90;;;;;;5114595;28;20671;-81
2023/01/07 07:28:45;;;;;;;4.03;3.03;;;7.80;99.90;;;;;;5114663;28;20203;-82
2023/01/07 07:31:11;;;;;;;4.17;2.80;;;7.80;99.90;;;;;;5114481;28;20203;-81
2023/01/07 07:33:38;;;;;;;4.30;2.67;;;7.80;99.90;;;;;;5114783;28;20225;-81
2023/01/07 07:36:07;;;;;;;3.80;2.90;;;7.90;99.90;;;;;;5114462;28;20539;-81
2023/01/07 07:38:34;;;;;;;3.30;2.70;;;7.90;99.90;;;;;;5114704;28;20656;-81
2023/01/07 07:41:01;;;;;;;4.80;3.10;;;7.90;99.90;;;;;;5114925;28;20227;-81
2023/01/07 07:43:27;;;;;;;4.63;3.90;;;8.20;99.90;;;;;;5114458;28;20227;-81
2023/01/07 07:45:54;;;;;;;3.50;3.10;;;8.20;99.90;;;;;;5114330;28;20217;-81
2023/01/07 07:48:21;;;;;;;6.10;4.07;;;8.10;99.90;;;;;;5114627;28;20197;-81
2023/01/07 07:50:51;;;;;;;4.77;3.47;;;8.10;99.90;;;;;;5115043;28;20204;-81
2023/01/07 07:53:19;;;;;;;4.70;3.57;;;8.20;99.90;;;;;;5114317;28;20221;-81
2023/01/07 07:55:46;;;;;;;6.00;3.60;;;8.40;99.90;;;;;;5109641;28;20197;-80
2023/01/07 07:58:13;;;;;;;4.33;3.57;;;8.60;99.90;;;;;;5115741;28;20693;-81
2023/01/07 08:00:40;;;;;;;4.23;3.00;;;8.50;99.90;;;;;;5117520;27;20826;-81
2023/01/07 08:03:07;;;;;;;3.83;3.10;;;8.60;99.90;;;;;;5114669;28;20223;-80
2023/01/07 08:05:34;;;;;;;5.37;3.37;;;8.60;99.90;;;;;;5117490;28;20671;-81
2023/01/07 08:08:01;;;;;;;4.70;3.17;;;8.60;99.90;;;;;;5103320;28;20213;-80
2023/01/07 08:10:29;;;;;;;4.23;3.80;;;8.50;99.90;;;;;;5117194;27;20201;-81
2023/01/07 08:12:56;;;;;;;5.90;3.60;;;8.50;99.90;;;;;;5117500;28;20221;-82
2023/01/07 08:15:23;;;;;;;5.93;3.50;;;8.60;99.90;;;;;;5117784;27;20612;-81
2023/01/07 08:17:57;;;;;;;5.27;3.50;;;8.60;99.90;;;;;;5127404;27;20260;-81
2023/01/07 08:20:24;;;;;;;6.73;3.57;;;8.70;99.90;;;;;;5107999;28;20208;-81
2023/01/07 08:22:51;;;;;;;4.40;3.30;;;8.80;99.90;;;;;;5117361;28;20227;-81
2023/01/07 08:25:18;;;;;;;5.10;3.77;;;8.80;99.90;;;;;;5123015;27;20212;-81
2023/01/07 08:27:46;;;;;;;4.63;3.83;;;8.80;99.90;;;;;;5117866;28;20197;-81
2023/01/07 08:30:13;;;;;;;5.27;3.63;;;9.00;99.90;;;;;;5117528;28;20200;-81
2023/01/07 08:32:40;;;;;;;4.30;3.40;;;8.90;99.90;;;;;;5116938;27;20676;-82
2023/01/07 08:35:07;;;;;;;3.90;3.27;;;8.90;99.90;;;;;;5117347;28;20201;-81
2023/01/07 08:37:34;;;;;;;4.53;3.60;;;9.00;99.90;;;;;;5116816;27;20205;-81
2023/01/07 08:40:02;;;;;;;4.90;3.43;;;9.00;99.90;;;;;;5117496;27;20568;-80
2023/01/07 08:42:29;;;;;;;4.20;3.80;;;9.00;99.90;;;;;;5113768;28;20279;-80
2023/01/07 08:44:58;;;;;;;4.73;3.93;;;9.10;99.90;;;;;;5116761;28;20224;-80
2023/01/07 08:47:26;;;;;;;5.87;3.90;;;9.30;99.90;;;;;;5097615;28;20419;-81
2023/01/07 08:49:53;;;;;;;4.80;3.70;;;9.40;99.90;;;;;;5116865;27;20217;-81
2023/01/07 08:52:21;;;;;;;4.20;3.63;;;9.50;99.90;;;;;;5104029;27;20233;-81
2023/01/07 08:54:48;;;;;;;4.70;4.20;;;9.50;99.90;;;;;;5113276;28;20610;-81
2023/01/07 08:57:16;;;;;;;5.63;4.30;;;9.60;99.90;;;;;;5106136;28;20206;-82
2023/01/07 08:59:43;;;;;;;4.40;3.67;;;9.70;99.90;;;;;;5115611;28;20219;-81
2023/01/07 09:02:14;;;;;;;4.10;3.50;;;9.80;99.90;;;;;;5116570;28;20227;-81
2023/01/07 09:04:40;;;;;;;4.33;3.60;;;9.80;99.90;;;;;;5116054;28;20187;-82
2023/01/07 09:07:07;;;;;;;4.80;3.53;;;9.90;99.90;;;;;;5116255;28;20205;-81
2023/01/07 09:09:34;;;;;;;3.80;3.00;;;9.90;99.90;;;;;;5115322;28;20205;-80
2023/01/07 09:12:01;;;;;;;3.03;2.73;;;10.10;99.90;;;;;;5115318;28;20724;-86
2023/01/07 09:14:28;;;;;;;4.27;3.47;;;10.10;99.90;;;;;;5117792;27;20212;-80
2023/01/07 09:16:55;;;;;;;3.33;3.03;;;10.20;99.90;;;;;;5117540;28;20692;-82
2023/01/07 09:19:23;;;;;;;3.43;3.13;;;10.30;99.90;;;;;;5125602;27;20201;-82
2023/01/07 09:21:51;;;;;;;3.63;3.00;;;10.30;99.90;;;;;;5137627;27;20220;-81
2023/01/07 09:24:18;;;;;;;3.87;3.00;;;10.40;99.90;;;;;;5121611;27;20218;-82
2023/01/07 09:26:45;;;;;;;3.17;2.50;;;10.40;99.90;;;;;;5118161;28;20219;-81
2023/01/07 09:29:12;;;;;;;4.67;2.97;;;10.50;99.90;;;;;;5117337;28;20197;-81
2023/01/07 09:31:38;;;;;;;4.43;3.10;;;10.50;99.90;;;;;;5116836;27;20573;-83
2023/01/07 09:34:06;;;;;;;3.20;2.90;;;10.50;99.90;;;;;;5116671;28;20213;-82
2023/01/07 09:36:34;;;;;;;4.47;2.73;;;10.60;99.90;;;;;;5114622;27;20214;-82
2023/01/07 09:39:01;;;;;;;3.20;2.80;;;10.50;99.90;;;;;;5116664;28;20209;-82
2023/01/07 09:41:38;;;;;;;4.93;3.40;;;10.60;99.90;;;;;;5117137;28;20688;-81
2023/01/07 09:44:15;;;;;;;3.57;3.27;;;10.60;99.90;;;;;;5116963;28;20208;-82
2023/01/07 09:46:45;;;;;;;4.63;3.50;;;10.70;99.90;;;;;;5116476;28;20201;-81
2023/01/07 09:49:17;;;;;;;4.30;3.13;;;10.70;99.90;;;;;;5117186;28;20203;-82
2023/01/07 09:51:50;;;;;;;2.90;2.67;;;10.70;99.90;;;;;;5112588;27;20204;-82
2023/01/07 09:54:25;;;;;;;4.13;3.30;;;10.70;99.90;;;;;;5113157;28;20624;-82
2023/01/07 09:56:52;;;;;;;3.30;3.00;;;10.70;99.90;;;;;;5116557;28;20196;-82
2023/01/07 09:59:19;;;;;;;4.07;3.57;;;10.70;99.90;;;;;;5112432;28;20638;-81
2023/01/07 10:01:53;;;;;;;3.00;2.70;;;10.70;99.90;;;;;;5114538;28;20224;-83
2023/01/07 10:04:30;;;;;;;4.53;3.00;;;10.70;99.90;;;;;;5115645;28;20203;-82
2023/01/07 10:07:11;;;;;;;5.27;3.40;;;10.70;99.90;;;;;;5109689;28;20201;-82
2023/01/07 10:09:50;;;;;;;3.50;3.20;;;10.70;99.90;;;;;;5128633;27;20200;-82
2023/01/07 10:12:23;;;;;;;3.37;3.07;;;10.80;99.90;;;;;;5128259;27;20256;-81
2023/01/07 10:15:07;;;;;;;3.63;3.20;;;10.80;99.90;;;;;;5108438;28;20234;-82
2023/01/07 10:17:57;;;;;;;3.60;2.93;;;10.90;99.90;;;;;;5120278;28;20637;-81
2023/01/07 10:20:34;;;;;;;3.43;3.13;;;10.90;99.90;;;;;;5109769;28;20258;-84
2023/01/07 10:23:07;;;;;;;3.10;2.80;;;10.90;99.90;;;;;;5112657;28;20219;-84
2023/01/07 10:25:37;;;;;;;3.47;3.10;;;10.90;99.90;;;;;;5111595;27;20288;-84
2023/01/07 10:28:09;;;;;;;3.10;2.70;;;11.10;99.90;;;;;;5114391;28;20308;-84
2023/01/07 10:30:42;;;;;;;3.13;2.77;;;11.00;99.90;;;;;;5112567;27;20205;-84
2023/01/07 10:33:18;;;;;;;2.83;2.60;;;11.10;99.90;;;;;;5111651;28;20217;-84
2023/01/07 10:35:48;;;;;;;4.47;3.33;;;11.10;99.90;;;;;;5108759;27;20580;-84
2023/01/07 10:38:19;;;;;;;2.80;2.60;;;11.10;99.90;;;;;;5104358;28;20197;-84
2023/01/07 10:40:51;;;;;;;2.77;2.50;;;11.00;99.90;;;;;;5104027;28;20228;-84
2023/01/07 10:43:36;;;;;;;1.90;1.80;;;11.10;99.90;;;;;;5105649;28;20252;-85
2023/01/07 10:46:18;;;;;;;2.10;1.63;;;11.10;99.90;;;;;;5113464;28;20211;-84
2023/01/07 10:49:16;;;;;;;6.87;2.03;;;11.20;99.90;;;;;;5112329;28;20269;-83
2023/01/07 10:52:05;;;;;;;2.47;1.70;;;11.20;99.90;;;;;;5110580;28;20209;-84
2023/01/07 10:54:49;;;;;;;2.40;1.40;;;11.30;99.90;;;;;;5104867;27;20201;-84
2023/01/07 10:57:20;;;;;;;2.23;1.47;;;11.30;99.90;;;;;;5106183;28;20193;-83
2023/01/07 10:59:49;;;;;;;2.43;1.60;;;11.40;99.90;;;;;;5112153;28;20197;-85
2023/01/07 11:02:19;;;;;;;1.53;1.43;;;11.50;99.90;;;;;;5110468;28;20299;-85
2023/01/07 11:04:46;;;;;;;1.10;1.00;;;11.60;99.90;;;;;;5114193;27;20637;-84
2023/01/07 11:07:20;;;;;;;1.30;1.20;;;11.70;99.90;;;;;;5107368;27;20284;-84
2023/01/07 11:09:49;;;;;;;1.13;1.10;;;11.70;99.90;;;;;;5114509;27;20197;-84
2023/01/07 11:12:25;;;;;;;1.50;1.40;;;11.80;99.90;;;;;;5119531;27;20666;-83
2023/01/07 11:14:55;;;;;;;0.90;0.90;;;11.90;99.90;;;;;;5109496;28;20435;-81
2023/01/07 11:17:31;;;;;;;1.87;0.90;;;11.90;99.90;;;;;;5113246;28;20650;-80
2023/01/07 11:19:58;;;;;;;0.70;0.67;;;11.90;99.90;;;;;;5113606;28;20201;-81
2023/01/07 11:22:30;;;;;;;0.90;0.90;;;12.00;99.90;;;;;;5114008;28;20332;-80
2023/01/07 11:24:59;;;;;;;2.33;1.20;;;12.00;99.90;;;;;;5107360;28;20657;-80
2023/01/07 11:27:29;;;;;;;0.97;0.97;;;12.00;99.90;;;;;;5121956;28;20201;-80
2023/01/07 11:29:58;;;;;;;1.10;1.00;;;11.90;99.90;;;;;;5109821;28;20208;-81
2023/01/07 11:32:28;;;;;;;0.93;0.93;;;11.80;99.90;;;;;;5115471;28;20227;-81
2023/01/07 11:34:58;;;;;;;1.10;1.00;;;11.80;99.90;;;;;;5122307;27;20200;-81
2023/01/07 11:37:37;;;;;;;0.93;0.93;;;11.60;99.90;;;;;;5115287;27;20205;-81
2023/01/07 11:40:18;;;;;;;1.10;1.03;;;11.60;99.90;;;;;;5116358;27;20242;-81
2023/01/07 11:42:50;;;;;;;0.80;0.80;;;11.50;99.90;;;;;;5121397;27;20603;-81
2023/01/07 11:45:21;;;;;;;1.77;1.13;;;11.50;99.90;;;;;;5117853;28;20435;-81
2023/01/07 11:47:53;;;;;;;3.33;1.40;;;11.50;99.90;;;;;;5110915;28;20249;-80
2023/01/07 11:50:33;;;;;;;0.80;0.80;;;11.50;99.90;;;;;;5119121;27;20197;-82
2023/01/07 11:53:02;;;;;;;1.47;1.27;;;11.50;99.90;;;;;;5113984;28;20227;-81
2023/01/07 11:55:30;;;;;;;1.23;1.03;;;11.50;99.90;;;;;;5119802;27;20197;-81
2023/01/07 11:57:58;;;;;;;0.90;0.90;;;11.50;99.90;;;;;;5117207;27;20716;-81
2023/01/07 12:00:27;;;;;;;1.30;1.20;;;11.50;99.90;;;;;;5115144;28;20651;-81
2023/01/07 12:03:04;;;;;;;0.80;0.80;;;11.50;99.90;;;;;;5112328;27;20278;-81
2023/01/07 12:05:31;;;;;;;1.30;1.20;;;11.50;99.90;;;;;;5120991;27;20215;-81
2023/01/07 12:07:58;;;;;;;1.43;0.90;;;11.40;99.90;;;;;;5114679;28;20205;-80
2023/01/07 12:10:30;;;;;;;1.43;0.90;;;11.40;99.90;;;;;;5114019;27;20633;-81
2023/01/07 12:12:59;;;;;;;1.20;1.10;;;11.40;99.90;;;;;;5117325;28;20239;-81
2023/01/07 12:15:28;;;;;;;1.90;1.20;;;11.30;99.90;;;;;;5119477;27;20556;-81
2023/01/07 12:18:16;;;;;;;1.30;1.20;;;11.30;99.90;;;;;;5113568;27;20299;-81
2023/01/07 12:21:12;;;;;;;1.73;1.27;;;11.30;99.90;;;;;;5115012;28;20204;-82
2023/01/07 12:23:51;;;;;;;2.77;2.13;;;11.30;99.90;;;;;;5115120;27;20221;-81
2023/01/07 12:26:23;;;;;;;1.50;1.40;;;11.30;99.90;;;;;;5118783;28;20193;-81
2023/01/07 12:29:02;;;;;;;2.37;1.63;;;11.30;99.90;;;;;;5116510;28;20276;-81
2023/01/07 12:31:40;;;;;;;0.97;0.97;;;11.30;99.90;;;;;;5118605;27;20587;-80
2023/01/07 12:34:15;;;;;;;2.20;1.30;;;11.30;99.90;;;;;;5113616;28;20193;-81
2023/01/07 12:36:46;;;;;;;1.27;1.17;;;11.30;99.90;;;;;;5116583;27;20208;-81
2023/01/07 12:39:19;;;;;;;1.40;1.30;;;11.30;99.90;;;;;;5116524;27;20207;-81
2023/01/07 12:41:53;;;;;;;2.87;0.97;;;11.20;99.90;;;;;;5116237;28;20695;-81
2023/01/07 12:44:22;;;;;;;3.07;1.80;;;11.30;99.90;;;;;;5114480;28;20215;-81
2023/01/07 12:46:59;;;;;;;2.07;0.90;;;11.20;99.90;;;;;;5115761;27;20203;-81
2023/01/07 12:49:30;;;;;;;1.03;0.93;;;11.30;99.90;;;;;;5111185;28;20731;-81
2023/01/07 12:52:02;;;;;;;2.00;1.10;;;11.30;99.90;;;;;;5116295;27;20230;-80
2023/01/07 12:54:42;;;;;;;1.20;1.10;;;11.30;99.90;;;;;;5111694;27;20259;-82
2023/01/07 12:57:15;;;;;;;0.90;0.90;;;11.20;99.90;;;;;;5108586;28;20197;-82
2023/01/07 12:59:47;;;;;;;1.30;1.00;;;11.40;99.90;;;;;;5111473;28;20201;-81
2023/01/07 13:02:32;;;;;;;1.40;1.30;;;11.20;99.90;;;;;;5112527;28;20239;-82
2023/01/07 13:05:08;;;;;;;1.63;1.00;;;11.20;99.90;;;;;;5107919;28;20544;-81
2023/01/07 13:07:40;;;;;;;1.23;1.00;;;11.30;99.90;;;;;;5104414;27;20217;-81
2023/01/07 13:10:15;;;;;;;0.97;0.90;;;11.20;99.90;;;;;;5114901;27;20638;-81